Nearby METAR Reports

 

CYUL - Montreal/Dorval, Quebec, Canada
Distance from station: ENE 6km
Updated: 06/19/2019 02:00 EDT
Few Clouds
Few Clouds
 Wind from varies
Wind: varies 4 km/h
Temperature: 17°C
Dew Point: 11°C
Humidity: 68%
Barometer: 1010.2 hPa
Clouds: Few Clouds
Visibility: 24 km
Cloud details: Few Clouds 3658 m
Few Clouds 4877 m
Few Clouds 7620 m
2019/06/19 06:00 CYUL 190600Z VRB02KT 15SM FEW120 FEW160 FEW250 17/11 A2983 RMK AC1AC1CI2 AC TR AC TR SLP104 DENSITY ALT 500FT
CWVQ - Ste Anne De Bell, Quebec, Canada
Distance from station: WSW 10km
Updated: 06/19/2019 01:00 EDT

 Wind from W
Wind: W 2 km/h
Temperature: 15°C
Dew Point: 12°C
Humidity: 82%
2019/06/19 05:00 CWVQ 190500Z AUTO 27001KT 15/12 RMK AO1 SLP103 T01510121 58006
 
CWTA - Mc Tavish (aut), Quebec, Canada
Distance from station: ENE 18km
Updated: 06/19/2019 02:00 EDT

 Wind from SSW
Wind: SSW 4 km/h
Temperature: 20°C
Dew Point: 10°C
Humidity: 53%
2019/06/19 06:00 CWTA 190600Z AUTO 21002KT 20/10 RMK AO1 SLP104 T01960095 55006
CYMX - Montreal/Mirabel, Quebec, Canada
Distance from station: NW 29km
Updated: 06/19/2019 02:00 EDT
Few Clouds
Few Clouds
 Wind from calm
Wind: Calm
Temperature: 12°C
Dew Point: 12°C
Humidity: 100%
Barometer: 1010.5 hPa
Clouds: Few Clouds
Visibility: 40 km
Cloud details: Few Clouds 4267 m
2019/06/19 06:00 CYMX 190600Z 00000KT 25SM FEW140 12/12 A2984 RMK AC2 SLP106
 
CYHU - Saint Hubert Arp, Quebec, Canada
Distance from station: ENE 31km
Updated: 06/19/2019 02:00 EDT
Partly cloudy
Partly cloudy
 Wind from SSE
Wind: SSE 6 km/h
Temperature: 16°C
Dew Point: 11°C
Humidity: 72%
Barometer: 1010.2 hPa
Clouds: Partly cloudy
Visibility: 14 km
Cloud details: Partly cloudy 6706 m
2019/06/19 06:00 CYHU 190600Z AUTO 15003KT 9SM SCT220 16/11 A2983 RMK SLP103 DENSITY ALT 300FT
CWIT - St Clothilde (a, Quebec, Canada
Distance from station: SSE 33km
Updated: 06/19/2019 02:00 EDT

 Wind from calm
Wind: Calm
Temperature: 14°C
Dew Point: 13°C
Humidity: 94%
2019/06/19 06:00 CWIT 190600Z AUTO 00000KT 14/13 RMK AO1 SLP100 T01440126 56010
 
CWIZ - L'acadie, Quebec, Canada
Distance from station: ESE 41km
Updated: 06/19/2019 01:00 EDT

 Wind from ESE
Wind: ESE 4 km/h
Temperature: 17°C
Dew Point: 12°C
Humidity: 73%
2019/06/19 05:00 CWIZ 190500Z AUTO 12002KT 17/12 RMK AO1 T01650120
CWHM - Varennes, Quebec, Canada
Distance from station: NE 45km
Updated: 10/25/2016 10:00 EDT
NOT Current

 Wind from W
Wind: W 19 km/h, Gust: 28 km/h
Temperature: 4°C
Wind Chill: 0°C
Dew Point: -2°C
Humidity: 65%
2016/10/25 14:00 CWHM 251400Z AUTO 28010G15KT 04/M02 RMK AO1 PK WND 28018/1302 T00391017
 
CWEW - L'assomption, Quebec, Canada
Distance from station: NE 50km
Updated: 06/19/2019 01:00 EDT

 Wind from WNW
Wind: WNW 2 km/h
Temperature: 15°C
Dew Point: 12°C
Humidity: 82%
2019/06/19 05:00 CWEW 190500Z AUTO 30001KT 15/12 RMK AO1 SLP108 T01490115 58007
CWBZ - St Anicet, Quebec, Canada
Distance from station: SW 52km
Updated: 06/19/2019 02:00 EDT

 Wind from NW
Wind: NW 2 km/h
Temperature: 15°C
Dew Point: 12°C
Humidity: 82%
2019/06/19 06:00 CWBZ 190600Z AUTO 32001KT 15/12 RMK AO1 SLP096 T01530123 56008
 
KFSO - Highgate, Vermont, USA
Distance from station: SE 79km
Updated: 06/19/2019 01:56 EDT
Clear
Clear
 Wind from SSE
Wind: SSE 9 km/h
Temperature: 16°C
Dew Point: 13°C
Humidity: 83%
Barometer: 1010.8 hPa
Clouds: Clear
Visibility: 16 km
2019/06/19 05:56 KFSO 190556Z AUTO 15005KT 10SM CLR 16/13 A2985 RMK AO2 T01640134 10230 20155
CMGB - Granby, Quebec, Canada
Distance from station: E 81km
Updated: 06/19/2019 02:00 EDT

 Wind from calm
Wind: Calm
Temperature: 13°C
Dew Point: 12°C
Humidity: 94%
2019/06/19 06:00 CMGB 190600Z AUTO 00000KT 13/12 RMK AO1 SLP104 T01300121 56007
 
CWJT - St Jovite (autob, Quebec, Canada
Distance from station: NW 88km
Updated: 06/19/2019 02:00 EDT

 Wind from NE
Wind: NE 2 km/h
Temperature: 12°C
Dew Point: 11°C
Humidity: 94%
2019/06/19 06:00 CWJT 190600Z AUTO 05001KT 12/11 RMK AO1 SLP105 T01150109 58009
CWFQ - Frelighsburg, Quebec, Canada
Distance from station: ESE 90km
Updated: 06/19/2019 01:00 EDT

 Wind from SSE
Wind: SSE 7 km/h
Temperature: 16°C
Dew Point: 10°C
Humidity: 68%
2019/06/19 05:00 CWFQ 190500Z AUTO 16004KT 16/10 RMK AO1 SLP109 T01610100 58005
 
KPBG - Plattsburgh Afb, New York, USA
Distance from station: SSE 93km
Updated: 06/19/2019 01:53 EDT
Clear
Clear
 Wind from calm
Wind: Calm
Temperature: 14°C
Dew Point: 11°C
Humidity: 82%
Barometer: 1010.8 hPa
Clouds: Clear
Visibility: 16 km
2019/06/19 05:53 KPBG 190553Z AUTO 00000KT 10SM CLR 14/11 A2985 RMK AO2 SLP106 T01440111 10217 20122 58005
KMSS - Massena, New York, USA
Distance from station: SW 100km
Updated: 06/19/2019 01:53 EDT
Clear
Clear
 Wind from calm
Wind: Calm
Temperature: 15°C
Dew Point: 13°C
Humidity: 88%
Barometer: 1010.5 hPa
Clouds: Clear
Visibility: 16 km
2019/06/19 05:53 KMSS 190553Z AUTO 00000KT 10SM CLR 15/13 A2984 RMK AO2 SLP105 T01500128 10239 20144 56009
 
CWBS - Lac St Pierre (a, Quebec, Canada
Distance from station: NE 106km
Updated: 06/19/2019 02:00 EDT

 Wind from calm
Wind: Calm
Temperature: 17°C
Dew Point: 12°C
Humidity: 73%
2019/06/19 06:00 CWBS 190600Z AUTO 00000KT 17/12 RMK AO1 T01690122
KBTV - Burlington, Vermont, USA
Distance from station: SSE 121km
Updated: 06/19/2019 01:54 EDT
Clear
Clear
 Wind from calm
Wind: Calm
Temperature: 17°C
Dew Point: 13°C
Humidity: 77%
Barometer: 1011.2 hPa
Clouds: Clear
Visibility: 16 km
2019/06/19 05:54 KBTV 190554Z AUTO 00000KT 10SM CLR 17/13 A2986 RMK AO2 SLP109 T01670133 10244 20167 58005
 
KSLK - Saranac Lake, New York, USA
Distance from station: SSW 121km
Updated: 06/19/2019 01:51 EDT
Clear
Clear
 Wind from calm
Wind: Calm
Temperature: 11°C
Dew Point: 9°C
Humidity: 88%
Barometer: 1012.2 hPa
Clouds: Clear
Visibility: 16 km
2019/06/19 05:51 KSLK 190551Z AUTO 00000KT 10SM CLR 11/09 A2989 RMK AO2 SLP116 T01060089 10211 20094 56007
CWNQ - Nicolet (autob), Quebec, Canada
Distance from station: NE 123km
Updated: 06/19/2019 02:00 EDT

 Wind from E
Wind: E 2 km/h
Temperature: 13°C
Dew Point: 13°C
Humidity: 100%
2019/06/19 06:00 CWNQ 190600Z AUTO 08001KT 13/13 RMK AO1 SLP098 T01320127 56005
 
KMWN - Mount Washington, New Hampshire, USA
Distance from station: SE 237km
Updated: 06/19/2019 01:57 EDT
Partly cloudy
Partly cloudy
 Wind from NW
Wind: NW 11 km/h
Temperature: 7°C
Wind Chill: 5°C
Dew Point: 5°C
Humidity: 87%
Clouds: Partly cloudy
Visibility: 96 km
Cloud details: Few Clouds 610 m
Partly cloudy 1219 m
Partly cloudy 2438 m
Partly cloudy 5486 m
2019/06/19 05:57 KMWN 190557Z 31006KT 60SM FEW020 SCT040 SCT080 SCT180 07/05 RMK PTCHY VLY FG E-S 10083 20064
CYVR - Vancouver Intl A, British Columbia, Canada
Distance from station: NW 3676km
Updated: 06/19/2019 02:00 EDT
Overcast
Overcast
 Wind from ESE
Wind: ESE 19 km/h
Temperature: 16°C
Dew Point: 9°C
Humidity: 63%
Barometer: 1019.6 hPa
Clouds: Overcast
Visibility: 32 km
Cloud details: Mostly cloudy 1859 m
Overcast 2195 m
2019/06/19 06:00 CYVR 190600Z 12010KT 20SM BKN061 OVC072 16/09 A3011 RMK SC7AC1 SLP199